Time;durP1;ratioP1;P1;durP2;ratioP2;P2;SDS_P1;SDS_P2;PMS_P1;PMS_P2;Temp;Humidity;BMP_temperature;BMP_pressure;BME280_temperature;BME280_humidity;BME280_pressure;Samples;Min_cycle;Max_cycle;Signal;HPM_P1;HPM_P2
2021/12/26 00:02:59;;;;;;;5.82;4.55;;;;;;;;;;9994012;29;20079;-56
2021/12/26 00:07:57;;;;;;;5.35;4.53;;;;;;;;;;10011497;29;20076;-58
2021/12/26 00:12:56;;;;;;;9.07;6.13;;;;;;;;;;10022739;29;20064;-58
2021/12/26 00:17:54;;;;;;;6.88;4.93;;;;;;;;;;9989977;29;20063;-59
2021/12/26 00:22:54;;;;;;;9.25;5.15;;;;;;;;;;9988128;29;20086;-58
2021/12/26 00:27:56;;;;;;;5.57;4.75;;;;;;;;;;9986879;29;20092;-58
2021/12/26 00:32:54;;;;;;;10.15;6.72;;;;;;;;;;9988124;29;20474;-57
2021/12/26 00:37:54;;;;;;;8.20;5.47;;;;;;;;;;9988070;29;20086;-57
2021/12/26 00:42:52;;;;;;;9.13;4.93;;;;;;;;;;9987919;29;20474;-58
2021/12/26 00:47:50;;;;;;;10.82;8.30;;;;;;;;;;9988795;29;20067;-59
2021/12/26 00:52:49;;;;;;;7.45;5.88;;;;;;;;;;9980085;29;20083;-59
2021/12/26 00:57:49;;;;;;;7.43;5.60;;;;;;;;;;9988106;29;20082;-58
2021/12/26 01:02:48;;;;;;;15.77;8.18;;;;;;;;;;10000207;29;20048;-58
2021/12/26 01:07:56;;;;;;;7.93;5.70;;;;;;;;;;9985213;29;20067;-59
2021/12/26 01:12:57;;;;;;;17.23;10.32;;;;;;;;;;9998623;29;20075;-58
2021/12/26 01:17:58;;;;;;;16.55;9.52;;;;;;;;;;9984363;29;20092;-58
2021/12/26 01:23:01;;;;;;;12.80;7.45;;;;;;;;;;9989288;29;20076;-57
2021/12/26 01:28:00;;;;;;;13.35;6.57;;;;;;;;;;9987494;29;20128;-58
2021/12/26 01:33:00;;;;;;;9.27;6.65;;;;;;;;;;9986017;29;20102;-59
2021/12/26 01:38:20;;;;;;;8.73;5.60;;;;;;;;;;9980321;29;20092;-56
2021/12/26 01:43:41;;;;;;;4.18;3.53;;;;;;;;;;9987283;29;20087;-57
2021/12/26 01:49:04;;;;;;;11.25;5.60;;;;;;;;;;9984474;29;20080;-58
2021/12/26 01:54:07;;;;;;;9.52;4.85;;;;;;;;;;9988102;29;20076;-57
2021/12/26 01:59:09;;;;;;;6.20;3.97;;;;;;;;;;9990725;29;20577;-56
2021/12/26 02:04:14;;;;;;;5.25;3.83;;;;;;;;;;9986783;29;20091;-58
2021/12/26 02:09:13;;;;;;;5.95;4.20;;;;;;;;;;9987528;29;20048;-58
2021/12/26 02:14:14;;;;;;;7.07;4.13;;;;;;;;;;9986892;29;20079;-56
2021/12/26 02:19:35;;;;;;;9.30;6.07;;;;;;;;;;9985954;29;20083;-58
2021/12/26 02:25:07;;;;;;;8.98;4.13;;;;;;;;;;9985470;29;20098;-58
2021/12/26 02:30:05;;;;;;;100.30;36.97;;;;;;;;;;9985540;29;20088;-59
2021/12/26 02:35:03;;;;;;;7.97;7.05;;;;;;;;;;9983116;29;20159;-58
2021/12/26 02:40:04;;;;;;;9.63;6.90;;;;;;;;;;9984287;29;20427;-58
2021/12/26 02:45:03;;;;;;;6.00;4.63;;;;;;;;;;9985741;29;20076;-58
2021/12/26 02:50:02;;;;;;;7.65;6.38;;;;;;;;;;9987995;29;20521;-59
2021/12/26 02:55:01;;;;;;;6.82;4.97;;;;;;;;;;9991072;29;20459;-58
2021/12/26 03:00:02;;;;;;;21.73;12.57;;;;;;;;;;9990820;29;20083;-59
2021/12/26 03:05:04;;;;;;;14.32;10.82;;;;;;;;;;9990210;29;20484;-59
2021/12/26 03:10:03;;;;;;;11.80;8.73;;;;;;;;;;9989672;29;20076;-58
2021/12/26 03:15:03;;;;;;;14.35;8.90;;;;;;;;;;9989863;29;20522;-58
2021/12/26 03:20:01;;;;;;;12.35;8.65;;;;;;;;;;9991523;29;20111;-59
2021/12/26 03:24:59;;;;;;;10.90;8.52;;;;;;;;;;9991225;29;20064;-54
2021/12/26 03:29:58;;;;;;;9.55;7.80;;;;;;;;;;9989022;29;20108;-58
2021/12/26 03:34:57;;;;;;;12.02;9.68;;;;;;;;;;9990875;29;20088;-58
2021/12/26 03:39:56;;;;;;;12.38;10.50;;;;;;;;;;10000944;29;20064;-54
2021/12/26 03:44:54;;;;;;;12.32;10.90;;;;;;;;;;9988776;29;20041;-57
2021/12/26 03:49:53;;;;;;;17.73;11.30;;;;;;;;;;9988108;29;20076;-59
2021/12/26 03:54:53;;;;;;;15.75;12.68;;;;;;;;;;9988766;29;20107;-59
2021/12/26 03:59:52;;;;;;;14.82;11.98;;;;;;;;;;9987861;29;20087;-59
2021/12/26 04:04:50;;;;;;;17.05;12.93;;;;;;;;;;9989857;29;20087;-59
2021/12/26 04:09:49;;;;;;;17.77;13.85;;;;;;;;;;9989399;29;20088;-59
2021/12/26 04:14:48;;;;;;;17.15;13.57;;;;;;;;;;9986994;29;20079;-58
2021/12/26 04:19:47;;;;;;;17.33;12.45;;;;;;;;;;9994750;29;20095;-59
2021/12/26 04:24:45;;;;;;;19.73;12.55;;;;;;;;;;9983328;29;20080;-59
2021/12/26 04:29:43;;;;;;;14.57;11.73;;;;;;;;;;9998983;29;20087;-59
2021/12/26 04:34:44;;;;;;;13.90;12.25;;;;;;;;;;9996575;29;20096;-59
2021/12/26 04:39:43;;;;;;;18.35;14.25;;;;;;;;;;9996432;29;20087;-58
2021/12/26 04:44:42;;;;;;;16.65;12.10;;;;;;;;;;9993031;29;20076;-58
2021/12/26 04:50:01;;;;;;;19.27;12.98;;;;;;;;;;9985532;29;20533;-58
2021/12/26 04:55:11;;;;;;;16.13;12.50;;;;;;;;;;9986125;29;20519;-59
2021/12/26 05:00:12;;;;;;;15.80;12.88;;;;;;;;;;9986288;29;20532;-57
2021/12/26 05:05:12;;;;;;;17.05;13.30;;;;;;;;;;9998506;29;20080;-56
2021/12/26 05:10:11;;;;;;;14.32;12.55;;;;;;;;;;9986703;29;20079;-57
2021/12/26 05:15:10;;;;;;;17.23;14.35;;;;;;;;;;9986206;29;20466;-57
2021/12/26 05:20:18;;;;;;;15.15;12.10;;;;;;;;;;10006866;29;20556;-52
2021/12/26 05:25:17;;;;;;;15.60;13.68;;;;;;;;;;10007795;29;20082;-57
2021/12/26 05:30:17;;;;;;;17.73;11.98;;;;;;;;;;9985756;29;20071;-57
2021/12/26 05:35:18;;;;;;;18.10;13.00;;;;;;;;;;9984309;29;20109;-57
2021/12/26 05:40:16;;;;;;;16.30;13.25;;;;;;;;;;9983950;29;20082;-57
2021/12/26 05:45:15;;;;;;;16.58;14.45;;;;;;;;;;9984143;29;20048;-58
2021/12/26 05:50:37;;;;;;;17.88;14.30;;;;;;;;;;9981204;29;20526;-57
2021/12/26 05:55:40;;;;;;;16.20;14.50;;;;;;;;;;9976016;29;20095;-58
2021/12/26 06:00:39;;;;;;;19.98;14.88;;;;;;;;;;9985766;29;20080;-57
2021/12/26 06:05:39;;;;;;;17.63;14.65;;;;;;;;;;9983819;29;20075;-58
2021/12/26 06:10:37;;;;;;;14.73;12.85;;;;;;;;;;9985622;29;20080;-57
2021/12/26 06:15:36;;;;;;;18.42;15.75;;;;;;;;;;9989929;29;20087;-58
2021/12/26 06:20:34;;;;;;;17.90;15.02;;;;;;;;;;9991288;29;20079;-57
2021/12/26 06:25:57;;;;;;;22.50;18.13;;;;;;;;;;9985298;29;20490;-58
2021/12/26 06:31:11;;;;;;;22.08;17.25;;;;;;;;;;9984843;29;20087;-58
2021/12/26 06:36:32;;;;;;;33.03;22.02;;;;;;;;;;9990412;29;20087;-58
2021/12/26 06:41:55;;;;;;;25.08;19.10;;;;;;;;;;9987098;29;20082;-54
2021/12/26 06:47:12;;;;;;;34.13;28.85;;;;;;;;;;9988861;29;20071;-58
2021/12/26 06:52:12;;;;;;;38.63;25.95;;;;;;;;;;10003245;29;20095;-58
2021/12/26 06:57:12;;;;;;;29.70;23.13;;;;;;;;;;9992091;29;20082;-59
2021/12/26 07:02:10;;;;;;;27.60;21.25;;;;;;;;;;10007212;29;20084;-59
2021/12/26 07:07:20;;;;;;;23.80;17.33;;;;;;;;;;10001572;29;20108;-58
2021/12/26 07:12:20;;;;;;;23.60;19.00;;;;;;;;;;9989786;29;20083;-59
2021/12/26 07:17:28;;;;;;;29.23;20.88;;;;;;;;;;9996380;29;20088;-59
2021/12/26 07:22:27;;;;;;;31.10;23.67;;;;;;;;;;9993340;29;20095;-58
2021/12/26 07:27:27;;;;;;;30.27;20.88;;;;;;;;;;9984831;29;20068;-58
2021/12/26 07:32:44;;;;;;;25.80;21.58;;;;;;;;;;9995355;29;20091;-57
2021/12/26 07:37:43;;;;;;;27.30;21.35;;;;;;;;;;9985037;29;20090;-59
2021/12/26 07:42:43;;;;;;;39.47;25.38;;;;;;;;;;9991362;29;20072;-59
2021/12/26 07:48:00;;;;;;;28.45;22.42;;;;;;;;;;10022197;29;20083;-58
2021/12/26 07:53:05;;;;;;;36.35;25.77;;;;;;;;;;10004502;29;20082;-59
2021/12/26 07:58:23;;;;;;;28.52;21.65;;;;;;;;;;10020606;29;20081;-59
2021/12/26 08:03:40;;;;;;;39.58;26.50;;;;;;;;;;9999685;29;20052;-58
2021/12/26 08:08:44;;;;;;;25.85;20.23;;;;;;;;;;9998885;29;20673;-59
2021/12/26 08:13:44;;;;;;;25.77;19.75;;;;;;;;;;9987831;29;20498;-59
2021/12/26 08:18:42;;;;;;;37.38;30.02;;;;;;;;;;9990265;29;20083;-59
2021/12/26 08:23:41;;;;;;;27.13;21.42;;;;;;;;;;9988430;29;20084;-59
2021/12/26 08:28:39;;;;;;;26.05;20.02;;;;;;;;;;9988842;29;20090;-59
2021/12/26 08:33:39;;;;;;;28.30;20.30;;;;;;;;;;9988541;29;20517;-58
2021/12/26 08:38:38;;;;;;;26.67;19.95;;;;;;;;;;9988601;29;20082;-58
2021/12/26 08:43:36;;;;;;;25.30;19.58;;;;;;;;;;9989057;29;20083;-59
2021/12/26 08:48:35;;;;;;;33.13;24.95;;;;;;;;;;9987667;29;20076;-58
2021/12/26 08:53:34;;;;;;;24.52;17.85;;;;;;;;;;9988092;29;20115;-59
2021/12/26 08:58:33;;;;;;;38.30;27.33;;;;;;;;;;9992860;29;20083;-59
2021/12/26 09:03:31;;;;;;;29.80;23.63;;;;;;;;;;9993112;29;20083;-59
2021/12/26 09:08:29;;;;;;;54.70;40.53;;;;;;;;;;9987370;29;20084;-59
2021/12/26 09:13:29;;;;;;;38.78;29.25;;;;;;;;;;9988106;29;20068;-59
2021/12/26 09:18:27;;;;;;;36.20;26.10;;;;;;;;;;9987116;29;20079;-59
2021/12/26 09:23:25;;;;;;;31.08;21.08;;;;;;;;;;9987066;29;20072;-60
2021/12/26 09:28:25;;;;;;;39.15;25.70;;;;;;;;;;9989498;29;20084;-59
2021/12/26 09:33:25;;;;;;;33.85;23.17;;;;;;;;;;9986526;29;20076;-58
2021/12/26 09:38:23;;;;;;;43.72;29.58;;;;;;;;;;9986592;29;20079;-59
2021/12/26 09:43:21;;;;;;;30.00;22.63;;;;;;;;;;9990464;29;20068;-59
2021/12/26 09:48:20;;;;;;;29.33;20.65;;;;;;;;;;9986156;29;20076;-59
2021/12/26 09:53:20;;;;;;;32.78;24.00;;;;;;;;;;9985288;29;20075;-59
2021/12/26 09:58:19;;;;;;;37.42;27.55;;;;;;;;;;9985088;29;20068;-59
2021/12/26 10:03:20;;;;;;;52.70;34.92;;;;;;;;;;9989695;29;20072;-59
2021/12/26 10:08:19;;;;;;;40.15;27.40;;;;;;;;;;9984289;29;20064;-59
2021/12/26 10:13:36;;;;;;;45.47;29.73;;;;;;;;;;9989762;29;20067;-60
2021/12/26 10:18:39;;;;;;;49.45;32.30;;;;;;;;;;9985837;29;20080;-59
2021/12/26 10:23:38;;;;;;;42.85;27.30;;;;;;;;;;9984552;29;20071;-59
2021/12/26 10:28:37;;;;;;;30.65;24.25;;;;;;;;;;9986802;29;20489;-58
2021/12/26 10:33:48;;;;;;;36.53;25.05;;;;;;;;;;9985689;29;20076;-57
2021/12/26 10:39:06;;;;;;;37.78;27.17;;;;;;;;;;9994466;29;20079;-59
2021/12/26 10:44:04;;;;;;;38.50;27.88;;;;;;;;;;9986095;29;20072;-57
2021/12/26 10:49:17;;;;;;;34.35;26.27;;;;;;;;;;9985679;29;20071;-58
2021/12/26 10:54:19;;;;;;;28.58;21.30;;;;;;;;;;9969051;29;20075;-58
2021/12/26 10:59:17;;;;;;;28.70;21.15;;;;;;;;;;9986237;29;20532;-58
2021/12/26 11:04:16;;;;;;;38.03;26.88;;;;;;;;;;9998147;29;20086;-58
2021/12/26 11:09:19;;;;;;;38.55;24.17;;;;;;;;;;9998464;29;20079;-58
2021/12/26 11:14:17;;;;;;;45.67;32.35;;;;;;;;;;9997791;29;20071;-57
2021/12/26 11:19:40;;;;;;;41.30;33.03;;;;;;;;;;9999979;29;20071;-59
2021/12/26 11:24:40;;;;;;;54.28;35.85;;;;;;;;;;9987506;29;20076;-59
2021/12/26 11:29:38;;;;;;;48.63;34.17;;;;;;;;;;9987141;29;20499;-57
2021/12/26 11:34:37;;;;;;;46.10;29.45;;;;;;;;;;10002088;29;20480;-59
2021/12/26 11:39:37;;;;;;;185.45;92.13;;;;;;;;;;10029028;29;20074;-56
2021/12/26 11:45:06;;;;;;;104.82;58.13;;;;;;;;;;10002317;29;20091;-58
2021/12/26 11:50:27;;;;;;;86.90;55.50;;;;;;;;;;10006925;29;20123;-58
2021/12/26 11:56:04;;;;;;;38.80;27.05;;;;;;;;;;9983982;29;20067;-58
2021/12/26 12:01:04;;;;;;;43.00;30.42;;;;;;;;;;10005823;29;20087;-58
2021/12/26 12:06:02;;;;;;;76.35;48.38;;;;;;;;;;10017368;29;20106;-59
2021/12/26 12:11:02;;;;;;;39.47;25.92;;;;;;;;;;10012985;29;20067;-57
2021/12/26 12:16:00;;;;;;;42.33;30.77;;;;;;;;;;10010003;29;20072;-58
2021/12/26 12:21:11;;;;;;;52.53;39.58;;;;;;;;;;10014962;29;20071;-57
2021/12/26 12:26:09;;;;;;;54.97;33.40;;;;;;;;;;10003746;29;20068;-56
2021/12/26 12:31:17;;;;;;;52.80;34.10;;;;;;;;;;10014803;29;20087;-58
2021/12/26 12:36:27;;;;;;;48.17;31.77;;;;;;;;;;9989909;29;20116;-57
2021/12/26 12:41:39;;;;;;;33.28;22.77;;;;;;;;;;9987764;29;20068;-58
2021/12/26 12:46:52;;;;;;;36.47;23.90;;;;;;;;;;10004247;29;20075;-58
2021/12/26 12:51:52;;;;;;;39.08;25.38;;;;;;;;;;9999704;29;20067;-57
2021/12/26 12:56:51;;;;;;;41.20;27.83;;;;;;;;;;9992352;29;20064;-57
2021/12/26 13:01:50;;;;;;;37.03;24.80;;;;;;;;;;10016326;29;20107;-57
2021/12/26 13:06:49;;;;;;;33.60;24.58;;;;;;;;;;9986974;29;20102;-57
2021/12/26 13:11:50;;;;;;;34.83;22.77;;;;;;;;;;9992800;29;20072;-57
2021/12/26 13:16:49;;;;;;;39.13;28.48;;;;;;;;;;9998398;29;20074;-56
2021/12/26 13:21:48;;;;;;;64.05;40.85;;;;;;;;;;10000168;29;20454;-57
2021/12/26 13:26:46;;;;;;;59.70;40.30;;;;;;;;;;10016506;29;20094;-59
2021/12/26 13:31:46;;;;;;;44.67;27.88;;;;;;;;;;10015666;29;20083;-56
2021/12/26 13:36:44;;;;;;;54.47;40.85;;;;;;;;;;10008730;29;20087;-57
2021/12/26 13:41:44;;;;;;;52.67;36.45;;;;;;;;;;9990885;29;20494;-54
2021/12/26 13:46:42;;;;;;;44.63;30.55;;;;;;;;;;9961869;29;20155;-57
2021/12/26 13:51:45;;;;;;;59.22;37.80;;;;;;;;;;9981722;29;20071;-57
2021/12/26 13:56:44;;;;;;;48.45;30.50;;;;;;;;;;9992601;29;20079;-57
2021/12/26 14:01:43;;;;;;;85.68;54.33;;;;;;;;;;9977501;29;20072;-55
2021/12/26 14:06:43;;;;;;;49.45;32.97;;;;;;;;;;9993722;29;20075;-57
2021/12/26 14:11:41;;;;;;;48.85;32.47;;;;;;;;;;10017010;29;20465;-57
2021/12/26 14:16:42;;;;;;;61.03;32.80;;;;;;;;;;9999671;29;20583;-56
2021/12/26 14:21:40;;;;;;;76.75;50.35;;;;;;;;;;10002825;29;20075;-56
2021/12/26 14:26:42;;;;;;;40.28;28.50;;;;;;;;;;9979785;29;20144;-58
2021/12/26 14:31:42;;;;;;;46.42;28.08;;;;;;;;;;9976276;29;20086;-57
2021/12/26 14:36:45;;;;;;;44.13;28.70;;;;;;;;;;9999094;29;20514;-58
2021/12/26 14:41:46;;;;;;;57.80;34.63;;;;;;;;;;9995493;29;20087;-58
2021/12/26 14:46:44;;;;;;;54.53;27.58;;;;;;;;;;10012817;29;20074;-58
2021/12/26 14:51:43;;;;;;;54.15;32.58;;;;;;;;;;9985244;29;20098;-56
2021/12/26 14:56:48;;;;;;;53.22;33.15;;;;;;;;;;9988810;29;20079;-58
2021/12/26 15:01:46;;;;;;;63.73;39.43;;;;;;;;;;10013081;29;20090;-57
2021/12/26 15:06:49;;;;;;;60.35;36.83;;;;;;;;;;10020259;29;20335;-57
2021/12/26 15:11:48;;;;;;;58.90;35.80;;;;;;;;;;10024342;29;20074;-58
2021/12/26 15:16:47;;;;;;;55.72;33.22;;;;;;;;;;10036270;29;20064;-57
2021/12/26 15:21:45;;;;;;;69.72;43.25;;;;;;;;;;10022769;29;20515;-58
2021/12/26 15:26:43;;;;;;;73.65;39.67;;;;;;;;;;10026679;29;20074;-59
2021/12/26 15:31:46;;;;;;;49.85;27.20;;;;;;;;;;10020763;29;20348;-57
2021/12/26 15:36:46;;;;;;;46.40;27.48;;;;;;;;;;10036409;29;20074;-59
2021/12/26 15:41:45;;;;;;;69.53;36.53;;;;;;;;;;10027748;29;20148;-57
2021/12/26 15:46:46;;;;;;;48.70;24.25;;;;;;;;;;10004842;29;20534;-57
2021/12/26 15:51:45;;;;;;;60.08;37.00;;;;;;;;;;10029359;29;20067;-58
2021/12/26 15:56:44;;;;;;;54.30;31.88;;;;;;;;;;10032928;29;20071;-58
2021/12/26 16:01:43;;;;;;;43.35;27.35;;;;;;;;;;10034984;29;20082;-58
2021/12/26 16:06:44;;;;;;;41.15;26.52;;;;;;;;;;10010163;29;20090;-58
2021/12/26 16:11:42;;;;;;;79.13;49.10;;;;;;;;;;10015644;29;20079;-59
2021/12/26 16:16:41;;;;;;;63.85;36.05;;;;;;;;;;10031949;29;20064;-58
2021/12/26 16:21:39;;;;;;;42.17;26.52;;;;;;;;;;9984735;29;20184;-58
2021/12/26 16:26:39;;;;;;;56.00;34.08;;;;;;;;;;9975724;29;20080;-58
2021/12/26 16:31:37;;;;;;;43.50;27.65;;;;;;;;;;9964541;29;20085;-57
2021/12/26 16:36:36;;;;;;;45.72;27.35;;;;;;;;;;10004088;29;20082;-57
2021/12/26 16:41:34;;;;;;;61.95;37.90;;;;;;;;;;10021039;29;20091;-58
2021/12/26 16:46:34;;;;;;;38.85;24.88;;;;;;;;;;10006199;29;20074;-58
2021/12/26 16:51:33;;;;;;;46.03;28.27;;;;;;;;;;9993165;29;20079;-58
2021/12/26 16:56:32;;;;;;;54.78;30.70;;;;;;;;;;9983839;29;20099;-59
2021/12/26 17:01:30;;;;;;;42.35;27.98;;;;;;;;;;9981954;29;20076;-58
2021/12/26 17:06:30;;;;;;;46.25;27.27;;;;;;;;;;9986117;29;20072;-58
2021/12/26 17:11:28;;;;;;;40.10;25.35;;;;;;;;;;9980206;29;20071;-58
2021/12/26 17:16:26;;;;;;;30.70;21.33;;;;;;;;;;9976373;29;20092;-58
2021/12/26 17:21:25;;;;;;;37.50;23.50;;;;;;;;;;9976339;29;20071;-58
2021/12/26 17:26:25;;;;;;;44.75;28.85;;;;;;;;;;9981581;29;20067;-55
2021/12/26 17:31:23;;;;;;;37.25;22.77;;;;;;;;;;9970840;29;20501;-59
2021/12/26 17:36:21;;;;;;;55.90;32.92;;;;;;;;;;9974767;29;20082;-57
2021/12/26 17:41:23;;;;;;;47.75;29.48;;;;;;;;;;9971530;29;20147;-57
2021/12/26 17:46:22;;;;;;;37.33;24.27;;;;;;;;;;9986068;29;20514;-57
2021/12/26 17:51:20;;;;;;;65.72;37.78;;;;;;;;;;9981552;29;20071;-57
2021/12/26 17:56:19;;;;;;;32.92;19.80;;;;;;;;;;9974764;29;20071;-58
2021/12/26 18:01:17;;;;;;;36.05;23.02;;;;;;;;;;9974151;29;20381;-57
2021/12/26 18:06:17;;;;;;;35.97;22.13;;;;;;;;;;9969310;29;20140;-58
2021/12/26 18:11:15;;;;;;;45.83;20.25;;;;;;;;;;9968604;29;20140;-59
2021/12/26 18:16:14;;;;;;;33.30;22.08;;;;;;;;;;9979091;29;20068;-58
2021/12/26 18:21:12;;;;;;;35.70;23.90;;;;;;;;;;9989086;29;20505;-59
2021/12/26 18:26:12;;;;;;;34.88;22.17;;;;;;;;;;9982718;29;20515;-58
2021/12/26 18:31:10;;;;;;;92.60;50.95;;;;;;;;;;9984248;29;20080;-57
2021/12/26 18:36:09;;;;;;;46.03;23.38;;;;;;;;;;9979996;29;20071;-58
2021/12/26 18:41:07;;;;;;;44.20;20.88;;;;;;;;;;10003746;29;20087;-56
2021/12/26 18:46:14;;;;;;;44.95;24.17;;;;;;;;;;10000379;29;20063;-58
2021/12/26 18:51:13;;;;;;;51.22;30.48;;;;;;;;;;9990876;29;20087;-58
2021/12/26 18:56:12;;;;;;;51.95;29.73;;;;;;;;;;9995899;29;20079;-58
2021/12/26 19:01:11;;;;;;;50.20;27.20;;;;;;;;;;9985917;29;20079;-58
2021/12/26 19:06:11;;;;;;;50.72;23.50;;;;;;;;;;9979945;29;20648;-57
2021/12/26 19:11:09;;;;;;;47.97;23.70;;;;;;;;;;9991126;29;20076;-58
2021/12/26 19:16:07;;;;;;;40.60;23.55;;;;;;;;;;9987386;29;20136;-57
2021/12/26 19:21:08;;;;;;;46.58;22.10;;;;;;;;;;9980070;29;20075;-58
2021/12/26 19:26:06;;;;;;;54.33;23.25;;;;;;;;;;9991627;29;20084;-59
2021/12/26 19:31:06;;;;;;;38.92;20.58;;;;;;;;;;9985012;29;20330;-58
2021/12/26 19:36:09;;;;;;;58.45;23.05;;;;;;;;;;9980709;29;20155;-58
2021/12/26 19:41:11;;;;;;;47.45;22.25;;;;;;;;;;9986112;29;20076;-58
2021/12/26 19:46:10;;;;;;;57.50;21.10;;;;;;;;;;9985515;29;20090;-56
2021/12/26 19:51:09;;;;;;;44.55;17.80;;;;;;;;;;9990841;29;20071;-58
2021/12/26 19:56:09;;;;;;;35.67;19.52;;;;;;;;;;9981803;29;20080;-56
2021/12/26 20:01:08;;;;;;;51.25;21.27;;;;;;;;;;9995370;29;20498;-58
2021/12/26 20:06:07;;;;;;;37.55;21.45;;;;;;;;;;9984105;29;20087;-57
2021/12/26 20:11:06;;;;;;;50.33;25.75;;;;;;;;;;9978428;29;20072;-58
2021/12/26 20:16:07;;;;;;;35.70;18.20;;;;;;;;;;9983004;29;20143;-59
2021/12/26 20:21:06;;;;;;;43.45;19.40;;;;;;;;;;9986030;29;20848;-59
2021/12/26 20:26:04;;;;;;;40.40;16.75;;;;;;;;;;9978589;29;20073;-60
2021/12/26 20:31:05;;;;;;;49.33;18.73;;;;;;;;;;9977531;29;20103;-58
2021/12/26 20:36:08;;;;;;;47.58;21.08;;;;;;;;;;9971934;29;20087;-57
2021/12/26 20:41:07;;;;;;;28.60;16.48;;;;;;;;;;9975981;29;20124;-59
2021/12/26 20:46:05;;;;;;;39.97;18.20;;;;;;;;;;9975421;29;20063;-59
2021/12/26 20:51:07;;;;;;;37.42;18.25;;;;;;;;;;9976110;29;20078;-59
2021/12/26 20:56:06;;;;;;;49.92;22.67;;;;;;;;;;9965185;29;20127;-59
2021/12/26 21:01:06;;;;;;;46.72;19.33;;;;;;;;;;9969744;29;20136;-58
2021/12/26 21:06:07;;;;;;;62.00;28.67;;;;;;;;;;9972359;29;20079;-58
2021/12/26 21:11:06;;;;;;;42.85;18.50;;;;;;;;;;9972487;29;20142;-57
2021/12/26 21:16:05;;;;;;;48.97;20.75;;;;;;;;;;9975503;29;20123;-59
2021/12/26 21:21:04;;;;;;;54.00;14.82;;;;;;;;;;10003674;29;20084;-58
2021/12/26 21:26:03;;;;;;;36.15;16.00;;;;;;;;;;9984095;29;20079;-58
2021/12/26 21:31:04;;;;;;;43.40;15.13;;;;;;;;;;9988842;29;20079;-58
2021/12/26 21:36:02;;;;;;;46.72;20.98;;;;;;;;;;9993769;29;20635;-58
2021/12/26 21:41:00;;;;;;;33.15;13.55;;;;;;;;;;9988549;29;20080;-58
2021/12/26 21:46:01;;;;;;;34.38;13.20;;;;;;;;;;9986203;29;20064;-58
2021/12/26 21:51:01;;;;;;;38.33;12.98;;;;;;;;;;9983977;29;20091;-57
2021/12/26 21:56:00;;;;;;;40.17;14.68;;;;;;;;;;9972192;29;20083;-58
2021/12/26 22:00:59;;;;;;;28.33;13.35;;;;;;;;;;9975224;29;20095;-57
2021/12/26 22:05:58;;;;;;;27.02;13.20;;;;;;;;;;9980873;29;20522;-59
2021/12/26 22:10:56;;;;;;;39.33;14.38;;;;;;;;;;9980291;29;20083;-57
2021/12/26 22:15:54;;;;;;;26.33;10.90;;;;;;;;;;9985071;29;20083;-59
2021/12/26 22:20:54;;;;;;;30.27;11.73;;;;;;;;;;9985489;29;20083;-59
2021/12/26 22:25:52;;;;;;;33.60;10.38;;;;;;;;;;9986475;29;20080;-59
2021/12/26 22:30:51;;;;;;;50.30;15.68;;;;;;;;;;10001857;29;20075;-58
2021/12/26 22:35:49;;;;;;;34.60;13.20;;;;;;;;;;9983914;29;20073;-59
2021/12/26 22:40:49;;;;;;;54.78;15.80;;;;;;;;;;9982789;29;20068;-59
2021/12/26 22:45:47;;;;;;;35.75;12.20;;;;;;;;;;9984937;29;20082;-59
2021/12/26 22:50:46;;;;;;;50.63;12.25;;;;;;;;;;9983597;29;20103;-59
2021/12/26 22:55:44;;;;;;;37.33;12.35;;;;;;;;;;9983374;29;20083;-59
2021/12/26 23:00:51;;;;;;;23.30;10.25;;;;;;;;;;9981405;29;20141;-58
2021/12/26 23:05:50;;;;;;;38.45;12.50;;;;;;;;;;9980088;29;20092;-58
2021/12/26 23:10:48;;;;;;;46.45;12.73;;;;;;;;;;9993808;29;20082;-55
2021/12/26 23:15:48;;;;;;;73.07;15.82;;;;;;;;;;9994662;29;20067;-60
2021/12/26 23:20:48;;;;;;;48.80;15.20;;;;;;;;;;9989730;29;20067;-59
2021/12/26 23:25:47;;;;;;;43.78;13.93;;;;;;;;;;9990502;29;20075;-57
2021/12/26 23:30:45;;;;;;;56.70;13.80;;;;;;;;;;9985606;29;20076;-58
2021/12/26 23:35:44;;;;;;;50.47;11.48;;;;;;;;;;9987121;29;20483;-56
2021/12/26 23:40:47;;;;;;;92.82;14.20;;;;;;;;;;9986683;29;20071;-57
2021/12/26 23:45:47;;;;;;;36.10;12.25;;;;;;;;;;9980323;29;20083;-58
2021/12/26 23:50:45;;;;;;;44.13;11.93;;;;;;;;;;9998120;29;20517;-59
2021/12/26 23:55:45;;;;;;;25.95;11.02;;;;;;;;;;10000015;29;20074;-57
